createdAt,value
2018-11-07T00:00:15.389Z,9.00
2018-11-07T00:02:42.926Z,10.20
2018-11-07T00:05:10.360Z,9.43
2018-11-07T00:07:37.791Z,8.27
2018-11-07T00:10:05.312Z,7.75
2018-11-07T00:12:32.717Z,8.48
2018-11-07T00:15:00.156Z,9.40
2018-11-07T00:17:28.271Z,7.80
2018-11-07T00:19:55.688Z,9.80
2018-11-07T00:22:23.180Z,8.25
2018-11-07T00:24:50.633Z,6.30
2018-11-07T00:27:18.069Z,9.45
2018-11-07T00:29:45.509Z,9.02
2018-11-07T00:32:12.946Z,9.25
2018-11-07T00:34:40.366Z,7.05
2018-11-07T00:37:07.825Z,9.07
2018-11-07T00:39:35.287Z,10.43
2018-11-07T00:42:02.732Z,8.82
2018-11-07T00:44:30.196Z,10.20
2018-11-07T00:46:57.752Z,10.25
2018-11-07T00:49:25.252Z,10.10
2018-11-07T00:51:52.689Z,10.98
2018-11-07T00:54:20.126Z,12.10
2018-11-07T00:56:47.550Z,10.65
2018-11-07T00:59:15.004Z,12.95
2018-11-07T01:01:42.446Z,10.80
2018-11-07T01:04:09.941Z,8.55
2018-11-07T01:06:37.373Z,9.18
2018-11-07T01:09:04.905Z,8.90
2018-11-07T01:11:32.314Z,7.82
2018-11-07T01:13:59.785Z,8.63
2018-11-07T01:16:27.289Z,10.25
2018-11-07T01:18:54.663Z,8.88
2018-11-07T01:21:22.066Z,9.73
2018-11-07T01:23:49.504Z,10.40
2018-11-07T01:26:16.907Z,9.63
2018-11-07T01:28:44.361Z,9.18
2018-11-07T01:31:11.818Z,9.50
2018-11-07T01:33:39.278Z,7.80
2018-11-07T01:36:06.795Z,9.80
2018-11-07T01:38:34.189Z,7.05
2018-11-07T01:41:01.700Z,7.40
2018-11-07T01:43:29.110Z,7.70
2018-11-07T01:45:56.560Z,10.15
2018-11-07T01:48:24.045Z,9.38
2018-11-07T01:50:51.499Z,9.10
2018-11-07T01:53:18.923Z,7.05
2018-11-07T01:55:46.323Z,8.55
2018-11-07T01:58:13.761Z,7.00
2018-11-07T02:00:41.256Z,7.82
2018-11-07T02:03:08.722Z,8.45
2018-11-07T02:05:36.161Z,8.30
2018-11-07T02:08:03.654Z,7.28
2018-11-07T02:10:31.060Z,7.22
2018-11-07T02:12:58.589Z,6.00
2018-11-07T02:15:26.000Z,5.80
2018-11-07T02:17:53.399Z,7.45
2018-11-07T02:20:20.837Z,7.82
2018-11-07T02:22:48.232Z,8.45
2018-11-07T02:25:15.854Z,9.00
2018-11-07T02:27:43.398Z,8.70
2018-11-07T02:30:10.866Z,10.98
2018-11-07T02:32:38.379Z,9.50
2018-11-07T02:35:05.789Z,8.25
2018-11-07T02:37:33.218Z,11.57
2018-11-07T02:40:01.254Z,10.15
2018-11-07T02:42:28.683Z,10.15
2018-11-07T02:44:56.135Z,9.38
2018-11-07T02:47:23.538Z,10.63
2018-11-07T02:49:50.966Z,13.60
2018-11-07T02:52:18.474Z,11.15
2018-11-07T02:54:46.066Z,10.95
2018-11-07T02:57:13.464Z,10.68
2018-11-07T02:59:40.943Z,7.95
2018-11-07T03:02:08.355Z,7.60
2018-11-07T03:04:35.816Z,7.55
2018-11-07T03:07:03.254Z,7.55
2018-11-07T03:09:30.694Z,10.23
2018-11-07T03:11:58.262Z,7.03
2018-11-07T03:14:25.746Z,8.95
2018-11-07T03:16:53.292Z,6.10
2018-11-07T03:19:20.701Z,8.73
2018-11-07T03:21:48.184Z,6.75
2018-11-07T03:24:15.575Z,8.23
2018-11-07T03:26:43.294Z,8.10
2018-11-07T03:29:10.700Z,6.20
2018-11-07T03:31:38.176Z,6.62
2018-11-07T03:34:05.676Z,6.37
2018-11-07T03:36:33.198Z,6.65
2018-11-07T03:39:00.685Z,7.62
2018-11-07T03:41:28.124Z,6.97
2018-11-07T03:43:55.618Z,8.05
2018-11-07T03:46:23.050Z,7.07
2018-11-07T03:48:50.552Z,7.25
2018-11-07T03:51:18.786Z,7.00
2018-11-07T03:53:46.191Z,7.25
2018-11-07T03:56:13.706Z,7.95
2018-11-07T03:58:41.104Z,8.25
2018-11-07T04:01:08.613Z,7.18
2018-11-07T04:03:36.031Z,8.70
2018-11-07T04:06:03.529Z,6.05
2018-11-07T04:08:30.936Z,7.20
2018-11-07T04:10:58.362Z,5.90
2018-11-07T04:13:25.802Z,7.07
2018-11-07T04:15:53.243Z,6.10
2018-11-07T04:18:20.694Z,5.55
2018-11-07T04:20:48.130Z,8.00
2018-11-07T04:23:15.654Z,7.60
2018-11-07T04:25:43.146Z,6.20
2018-11-07T04:28:10.567Z,7.65
2018-11-07T04:30:38.009Z,5.68
2018-11-07T04:33:05.425Z,8.15
2018-11-07T04:35:32.939Z,7.07
2018-11-07T04:38:00.344Z,6.65
2018-11-07T04:40:28.118Z,7.20
2018-11-07T04:42:55.530Z,5.55
2018-11-07T04:45:23.044Z,8.00
2018-11-07T04:47:50.492Z,6.90
2018-11-07T04:50:18.067Z,8.70
2018-11-07T04:52:45.496Z,7.35
2018-11-07T04:55:12.924Z,7.43
2018-11-07T04:57:40.392Z,7.70
2018-11-07T05:00:07.878Z,8.95
2018-11-07T05:02:35.235Z,7.85
2018-11-07T05:05:02.699Z,8.93
2018-11-07T05:07:30.099Z,9.82
2018-11-07T05:09:57.528Z,9.40
2018-11-07T05:12:24.929Z,9.98
2018-11-07T05:14:52.374Z,9.32
2018-11-07T05:17:20.405Z,9.23
2018-11-07T05:19:47.869Z,7.68
2018-11-07T05:22:15.358Z,8.55
2018-11-07T05:24:43.028Z,12.25
2018-11-07T05:27:10.493Z,12.30
2018-11-07T05:29:37.895Z,10.20
2018-11-07T05:32:05.440Z,10.95
2018-11-07T05:34:32.793Z,8.38
2018-11-07T05:37:00.238Z,9.18
2018-11-07T05:39:27.858Z,7.82
2018-11-07T05:41:55.297Z,8.70
2018-11-07T05:44:22.761Z,12.13
2018-11-07T05:46:50.874Z,7.57
2018-11-07T05:49:18.335Z,7.30
2018-11-07T05:51:46.682Z,8.82
2018-11-07T05:54:14.204Z,7.50
2018-11-07T05:56:41.672Z,6.37
2018-11-07T05:59:09.893Z,6.90
2018-11-07T06:01:37.348Z,6.65
2018-11-07T06:04:04.760Z,8.07
2018-11-07T06:06:32.255Z,5.90
2018-11-07T06:08:59.649Z,5.18
2018-11-07T06:11:27.061Z,4.87
2018-11-07T06:13:54.518Z,11.48
2018-11-07T06:16:22.132Z,5.87
2018-11-07T06:18:49.503Z,7.25
2018-11-07T06:21:17.262Z,7.47
2018-11-07T06:23:44.759Z,9.60
2018-11-07T06:26:12.192Z,7.12
2018-11-07T06:28:39.631Z,6.75
2018-11-07T06:31:07.051Z,7.35
2018-11-07T06:33:34.477Z,5.78
2018-11-07T06:36:01.954Z,6.55
2018-11-07T06:38:29.383Z,7.07
2018-11-07T06:40:56.848Z,6.93
2018-11-07T06:43:24.343Z,6.55
2018-11-07T06:45:51.781Z,6.82
2018-11-07T06:48:19.201Z,7.20
2018-11-07T06:50:46.634Z,7.53
2018-11-07T06:53:14.137Z,7.22
2018-11-07T06:55:41.635Z,7.72
2018-11-07T06:58:09.139Z,5.68
2018-11-07T07:00:36.793Z,7.32
2018-11-07T07:03:04.230Z,8.60
2018-11-07T07:05:31.689Z,7.80
2018-11-07T07:07:59.135Z,9.82
2018-11-07T07:10:26.606Z,7.90
2018-11-07T07:12:54.166Z,6.53
2018-11-07T07:15:21.634Z,7.35
2018-11-07T07:17:49.144Z,8.20
2018-11-07T07:20:16.572Z,7.15
2018-11-07T07:22:44.020Z,6.43
2018-11-07T07:25:11.495Z,7.72
2018-11-07T07:27:38.920Z,9.32
2018-11-07T07:30:06.476Z,7.85
2018-11-07T07:32:33.831Z,7.97
2018-11-07T07:35:01.296Z,7.28
2018-11-07T07:37:28.713Z,8.20
2018-11-07T07:39:56.156Z,8.60
2018-11-07T07:42:23.667Z,6.47
2018-11-07T07:44:51.100Z,9.60
2018-11-07T07:47:19.535Z,6.87
2018-11-07T07:49:47.098Z,8.15
2018-11-07T07:52:14.549Z,7.57
2018-11-07T07:54:42.010Z,8.23
2018-11-07T07:57:09.486Z,6.40
2018-11-07T07:59:36.964Z,5.53
2018-11-07T08:02:04.440Z,7.20
2018-11-07T08:04:31.875Z,5.65
2018-11-07T08:06:59.393Z,7.82
2018-11-07T08:09:26.811Z,9.70
2018-11-07T08:11:54.284Z,18.30
2018-11-07T08:14:21.945Z,17.55
2018-11-07T08:16:49.474Z,7.80
2018-11-07T08:19:17.131Z,20.25
2018-11-07T08:21:44.561Z,6.62
2018-11-07T08:24:12.081Z,7.75
2018-11-07T08:26:39.515Z,5.15
2018-11-07T08:29:07.000Z,5.85
2018-11-07T08:31:34.404Z,6.70
2018-11-07T08:34:01.839Z,6.78
2018-11-07T08:36:29.377Z,6.80
2018-11-07T08:38:56.799Z,4.72
2018-11-07T08:41:24.390Z,5.37
2018-11-07T08:43:51.956Z,6.55
2018-11-07T08:46:19.508Z,5.30
2018-11-07T08:48:46.894Z,4.55
2018-11-07T08:51:14.422Z,6.10
2018-11-07T08:53:41.838Z,8.80
2018-11-07T08:56:09.255Z,6.60
2018-11-07T08:58:36.713Z,7.82
2018-11-07T09:01:04.299Z,6.70
2018-11-07T09:03:31.772Z,5.35
2018-11-07T09:05:59.374Z,6.72
2018-11-07T09:08:26.871Z,4.93
2018-11-07T09:10:54.354Z,4.47
2018-11-07T09:13:22.110Z,5.18
2018-11-07T09:15:49.745Z,4.55
2018-11-07T09:18:17.168Z,3.70
2018-11-07T09:20:44.764Z,3.35
2018-11-07T09:23:12.192Z,3.47
2018-11-07T09:25:39.871Z,4.28
2018-11-07T09:28:07.313Z,4.25
2018-11-07T09:30:34.854Z,4.18
2018-11-07T09:33:02.297Z,5.97
2018-11-07T09:35:29.708Z,6.10
2018-11-07T09:37:57.163Z,3.42
2018-11-07T09:40:24.671Z,4.28
2018-11-07T09:42:52.100Z,5.05
2018-11-07T09:45:19.630Z,3.10
2018-11-07T09:47:47.083Z,4.90
2018-11-07T09:50:14.504Z,4.12
2018-11-07T09:52:41.979Z,4.72
2018-11-07T09:55:09.408Z,3.72
2018-11-07T09:57:36.831Z,4.03
2018-11-07T10:00:04.271Z,5.07
2018-11-07T10:02:31.778Z,6.50
2018-11-07T10:04:59.228Z,6.37
2018-11-07T10:07:26.841Z,5.25
2018-11-07T10:09:54.310Z,3.83
2018-11-07T10:12:21.748Z,4.68
2018-11-07T10:14:49.181Z,4.72
2018-11-07T10:17:16.881Z,5.40
2018-11-07T10:19:44.385Z,5.47
2018-11-07T10:22:11.965Z,4.68
2018-11-07T10:24:39.523Z,4.35
2018-11-07T10:27:07.011Z,4.75
2018-11-07T10:29:34.639Z,4.10
2018-11-07T10:32:02.053Z,4.72
2018-11-07T10:34:29.515Z,5.93
2018-11-07T10:36:56.936Z,5.03
2018-11-07T10:39:24.379Z,4.07
2018-11-07T10:41:51.816Z,4.85
2018-11-07T10:44:19.324Z,7.10
2018-11-07T10:46:46.690Z,7.00
2018-11-07T10:49:14.213Z,4.78
2018-11-07T10:51:41.804Z,4.37
2018-11-07T10:54:09.302Z,6.43
2018-11-07T10:56:36.824Z,5.47
2018-11-07T10:59:04.942Z,6.35
2018-11-07T11:01:32.489Z,4.72
2018-11-07T11:03:59.936Z,5.72
2018-11-07T11:06:27.384Z,6.87
2018-11-07T11:08:55.573Z,5.30
2018-11-07T11:11:23.073Z,3.65
2018-11-07T11:13:50.525Z,5.18
2018-11-07T11:16:19.017Z,6.15
2018-11-07T11:18:46.600Z,5.15
2018-11-07T11:21:15.047Z,5.60
2018-11-07T11:23:42.533Z,6.00
2018-11-07T11:26:10.008Z,7.55
2018-11-07T11:28:37.744Z,6.10
2018-11-07T11:31:05.248Z,5.85
2018-11-07T11:33:32.761Z,5.50
2018-11-07T11:36:00.363Z,5.75
2018-11-07T11:38:27.950Z,6.00
2018-11-07T11:40:55.577Z,7.37
2018-11-07T11:43:23.010Z,7.05
2018-11-07T11:45:50.448Z,6.68
2018-11-07T11:48:17.950Z,6.53
2018-11-07T11:50:45.441Z,7.97
2018-11-07T11:53:12.897Z,6.72
2018-11-07T11:55:40.407Z,8.15
2018-11-07T11:58:07.883Z,8.35
2018-11-07T12:00:35.353Z,6.50
2018-11-07T12:03:02.864Z,7.55
2018-11-07T12:05:31.020Z,6.47
2018-11-07T12:07:58.430Z,7.72
2018-11-07T12:10:25.911Z,8.82
2018-11-07T12:12:53.449Z,7.50
2018-11-07T12:15:20.955Z,8.85
2018-11-07T12:17:48.339Z,8.77
2018-11-07T12:20:15.820Z,8.10
2018-11-07T12:22:43.283Z,8.13
2018-11-07T12:25:10.722Z,8.38
2018-11-07T12:27:38.160Z,7.18
2018-11-07T12:30:05.624Z,6.82
2018-11-07T12:32:33.077Z,8.48
2018-11-07T12:35:00.705Z,7.57
2018-11-07T12:37:28.718Z,6.97
2018-11-07T12:39:57.111Z,7.53
2018-11-07T12:42:24.579Z,7.15
2018-11-07T12:44:52.072Z,8.73
2018-11-07T12:47:20.487Z,9.07
2018-11-07T12:49:47.987Z,9.95
2018-11-07T12:52:15.425Z,9.73
2018-11-07T12:54:42.873Z,8.48
2018-11-07T12:57:10.403Z,7.35
2018-11-07T12:59:37.990Z,10.88
2018-11-07T13:02:06.352Z,8.38
2018-11-07T13:04:33.848Z,9.00
2018-11-07T13:07:01.403Z,7.15
2018-11-07T13:09:29.016Z,7.90
2018-11-07T13:11:56.630Z,7.97
2018-11-07T13:14:24.100Z,7.80
2018-11-07T13:16:51.812Z,8.50
2018-11-07T13:19:20.177Z,7.68
2018-11-07T13:21:48.446Z,7.72
2018-11-07T13:24:15.874Z,7.18
2018-11-07T13:26:43.486Z,6.85
2018-11-07T13:29:10.970Z,7.62
2018-11-07T13:31:38.494Z,7.57
2018-11-07T13:34:06.018Z,8.90
2018-11-07T13:36:33.559Z,8.23
2018-11-07T13:39:01.169Z,9.68
2018-11-07T13:41:28.403Z,7.10
2018-11-07T13:43:55.812Z,8.48
2018-11-07T13:46:24.718Z,7.95
2018-11-07T13:48:52.268Z,6.35
2018-11-07T13:51:19.780Z,6.68
2018-11-07T13:53:47.239Z,6.22
2018-11-07T13:56:14.698Z,8.52
2018-11-07T13:58:42.133Z,7.65
2018-11-07T14:01:09.595Z,7.12
2018-11-07T14:03:37.009Z,6.75
2018-11-07T14:06:04.847Z,7.37
2018-11-07T14:08:32.350Z,7.70
2018-11-07T14:10:59.929Z,8.20
2018-11-07T14:13:27.413Z,5.65
2018-11-07T14:15:55.054Z,6.03
2018-11-07T14:18:22.426Z,7.62
2018-11-07T14:20:49.970Z,5.10
2018-11-07T14:23:17.766Z,6.00
2018-11-07T14:25:45.177Z,5.82
2018-11-07T14:28:12.879Z,5.37
2018-11-07T14:30:40.214Z,5.53
2018-11-07T14:33:07.756Z,6.60
2018-11-07T14:35:35.256Z,6.57
2018-11-07T14:38:02.868Z,4.95
2018-11-07T14:40:30.337Z,6.75
2018-11-07T14:42:57.814Z,5.05
2018-11-07T14:45:25.243Z,6.18
2018-11-07T14:47:52.996Z,5.10
2018-11-07T14:50:20.484Z,5.05
2018-11-07T14:52:47.920Z,5.35
2018-11-07T14:55:15.541Z,5.93
2018-11-07T14:57:42.985Z,6.72
2018-11-07T15:00:10.514Z,4.15
2018-11-07T15:02:37.955Z,4.45
2018-11-07T15:05:05.368Z,6.00
2018-11-07T15:07:32.964Z,4.90
2018-11-07T15:10:00.371Z,6.30
2018-11-07T15:12:28.127Z,6.70
2018-11-07T15:14:55.764Z,6.85
2018-11-07T15:17:23.284Z,7.22
2018-11-07T15:19:50.622Z,6.90
2018-11-07T15:22:18.103Z,5.87
2018-11-07T15:24:45.571Z,6.07
2018-11-07T15:27:13.040Z,6.62
2018-11-07T15:29:40.472Z,8.05
2018-11-07T15:32:08.019Z,7.30
2018-11-07T15:34:35.478Z,4.43
2018-11-07T15:37:02.943Z,5.32
2018-11-07T15:39:30.389Z,5.43
2018-11-07T15:41:57.856Z,5.85
2018-11-07T15:44:25.296Z,5.37
2018-11-07T15:46:52.969Z,5.93
2018-11-07T15:49:20.419Z,5.57
2018-11-07T15:51:47.901Z,5.85
2018-11-07T15:54:15.339Z,6.82
2018-11-07T15:56:42.795Z,6.05
2018-11-07T15:59:10.344Z,6.53
2018-11-07T16:01:37.829Z,7.10
2018-11-07T16:04:05.359Z,5.82
2018-11-07T16:06:33.790Z,6.03
2018-11-07T16:09:01.229Z,6.22
2018-11-07T16:11:28.682Z,6.72
2018-11-07T16:13:56.114Z,8.02
2018-11-07T16:16:23.551Z,6.15
2018-11-07T16:18:50.976Z,7.00
2018-11-07T16:21:18.422Z,5.72
2018-11-07T16:23:46.597Z,6.22
2018-11-07T16:26:13.998Z,7.57
2018-11-07T16:28:41.454Z,6.97
2018-11-07T16:31:08.917Z,7.25
2018-11-07T16:33:36.492Z,6.85
2018-11-07T16:36:03.958Z,7.35
2018-11-07T16:38:31.396Z,6.97
2018-11-07T16:40:58.896Z,7.57
2018-11-07T16:43:26.796Z,5.87
2018-11-07T16:45:54.289Z,8.50
2018-11-07T16:48:21.849Z,7.30
2018-11-07T16:50:49.624Z,7.22
2018-11-07T16:53:17.156Z,6.00
2018-11-07T16:55:44.557Z,7.78
2018-11-07T16:58:12.293Z,6.82
2018-11-07T17:00:39.716Z,6.47
2018-11-07T17:03:07.230Z,8.05
2018-11-07T17:05:34.748Z,7.03
2018-11-07T17:08:02.321Z,6.30
2018-11-07T17:10:30.149Z,7.47
2018-11-07T17:12:57.568Z,9.18
2018-11-07T17:15:24.988Z,7.87
2018-11-07T17:17:52.461Z,6.45
2018-11-07T17:20:19.993Z,8.45
2018-11-07T17:22:49.105Z,6.93
2018-11-07T17:25:16.604Z,7.25
2018-11-07T17:27:44.170Z,8.57
2018-11-07T17:30:12.301Z,7.97
2018-11-07T17:32:40.143Z,11.00
2018-11-07T17:35:08.297Z,8.52
2018-11-07T17:37:35.763Z,9.57
2018-11-07T17:40:03.216Z,7.75
2018-11-07T17:42:30.724Z,9.80
2018-11-07T17:44:58.283Z,11.27
2018-11-07T17:47:26.563Z,10.43
2018-11-07T17:49:53.988Z,10.50
2018-11-07T17:52:21.444Z,11.55
2018-11-07T17:54:49.043Z,11.35
2018-11-07T17:57:16.495Z,10.40
2018-11-07T17:59:43.991Z,11.20
2018-11-07T18:02:11.647Z,9.82
2018-11-07T18:04:39.168Z,10.52
2018-11-07T18:07:06.802Z,11.85
2018-11-07T18:09:35.011Z,9.23
2018-11-07T18:12:02.711Z,10.48
2018-11-07T18:14:30.171Z,12.25
2018-11-07T18:16:57.589Z,11.65
2018-11-07T18:19:25.281Z,11.77
2018-11-07T18:21:52.696Z,15.75
2018-11-07T18:24:20.164Z,12.45
2018-11-07T18:26:47.629Z,11.50
2018-11-07T18:29:15.330Z,10.98
2018-11-07T18:31:42.778Z,11.27
2018-11-07T18:34:10.253Z,16.37
2018-11-07T18:36:37.734Z,12.52
2018-11-07T18:39:05.241Z,10.95
2018-11-07T18:41:32.759Z,11.27
2018-11-07T18:44:00.229Z,9.00
2018-11-07T18:46:27.780Z,9.60
2018-11-07T18:48:55.301Z,8.95
2018-11-07T18:51:22.765Z,10.98
2018-11-07T18:53:50.238Z,18.58
2018-11-07T18:56:17.958Z,20.65
2018-11-07T18:58:45.457Z,13.93
2018-11-07T19:01:12.967Z,11.07
2018-11-07T19:03:40.409Z,10.15
2018-11-07T19:06:08.042Z,29.37
2018-11-07T19:08:35.731Z,9.48
2018-11-07T19:11:03.197Z,10.57
2018-11-07T19:13:30.731Z,9.52
2018-11-07T19:15:58.245Z,9.95
2018-11-07T19:18:25.899Z,8.68
2018-11-07T19:20:53.411Z,13.30
2018-11-07T19:23:20.938Z,8.90
2018-11-07T19:25:49.204Z,8.07
2018-11-07T19:28:16.759Z,9.45
2018-11-07T19:30:44.282Z,10.95
2018-11-07T19:33:11.894Z,8.80
2018-11-07T19:35:39.311Z,9.55
2018-11-07T19:38:06.763Z,9.65
2018-11-07T19:40:34.223Z,9.57
2018-11-07T19:43:01.673Z,7.90
2018-11-07T19:45:29.103Z,8.43
2018-11-07T19:47:56.729Z,7.60
2018-11-07T19:50:24.154Z,9.13
2018-11-07T19:52:51.605Z,7.62
2018-11-07T19:55:19.274Z,12.48
2018-11-07T19:57:46.615Z,8.30
2018-11-07T20:00:14.686Z,6.87
2018-11-07T20:02:42.242Z,8.10
2018-11-07T20:05:09.802Z,7.50
2018-11-07T20:07:37.305Z,7.57
2018-11-07T20:10:04.882Z,8.15
2018-11-07T20:12:32.307Z,10.68
2018-11-07T20:14:59.968Z,9.52
2018-11-07T20:17:27.623Z,8.77
2018-11-07T20:19:55.540Z,15.93
2018-11-07T20:22:23.027Z,9.48
2018-11-07T20:24:50.486Z,10.48
2018-11-07T20:27:17.910Z,9.07
2018-11-07T20:29:45.327Z,10.38
2018-11-07T20:32:12.789Z,9.07
2018-11-07T20:34:40.501Z,8.32
2018-11-07T20:37:08.227Z,7.80
2018-11-07T20:39:35.667Z,8.85
2018-11-07T20:42:03.153Z,12.00
2018-11-07T20:44:30.615Z,10.25
2018-11-07T20:46:58.212Z,11.43
2018-11-07T20:49:25.748Z,9.93
2018-11-07T20:51:53.231Z,12.85
2018-11-07T20:54:20.773Z,11.80
2018-11-07T20:56:48.207Z,11.95
2018-11-07T20:59:15.841Z,10.82
2018-11-07T21:01:44.660Z,15.07
2018-11-07T21:04:12.175Z,11.00
2018-11-07T21:06:39.640Z,11.27
2018-11-07T21:09:07.119Z,9.32
2018-11-07T21:11:34.647Z,12.93
2018-11-07T21:14:02.181Z,11.57
2018-11-07T21:16:29.706Z,10.50
2018-11-07T21:18:57.155Z,11.15
2018-11-07T21:21:24.611Z,12.57
2018-11-07T21:23:52.082Z,11.02
2018-11-07T21:26:19.547Z,10.90
2018-11-07T21:28:47.031Z,11.70
2018-11-07T21:31:14.563Z,10.93
2018-11-07T21:33:41.980Z,12.18
2018-11-07T21:36:09.475Z,10.98
2018-11-07T21:38:36.950Z,11.50
2018-11-07T21:41:04.585Z,11.85
2018-11-07T21:43:32.186Z,11.40
2018-11-07T21:45:59.704Z,9.77
2018-11-07T21:48:28.236Z,9.23
2018-11-07T21:50:55.704Z,10.43
2018-11-07T21:53:23.591Z,9.20
2018-11-07T21:55:51.180Z,10.45
2018-11-07T21:58:18.647Z,10.63
2018-11-07T22:00:46.111Z,10.80
2018-11-07T22:03:13.547Z,10.60
2018-11-07T22:05:41.039Z,11.80
2018-11-07T22:08:08.506Z,11.27
2018-11-07T22:10:35.955Z,10.85
2018-11-07T22:13:03.519Z,8.70
2018-11-07T22:15:30.870Z,8.40
2018-11-07T22:17:58.315Z,9.75
2018-11-07T22:20:26.041Z,8.25
2018-11-07T22:22:53.538Z,8.75
2018-11-07T22:25:20.985Z,9.05
2018-11-07T22:27:48.523Z,8.82
2018-11-07T22:30:15.966Z,8.55
2018-11-07T22:32:43.543Z,7.78
2018-11-07T22:35:10.958Z,6.65
2018-11-07T22:37:38.436Z,7.82
2018-11-07T22:40:05.893Z,6.55
2018-11-07T22:42:33.306Z,6.00
2018-11-07T22:45:00.720Z,5.22
2018-11-07T22:47:28.876Z,6.62
2018-11-07T22:49:56.431Z,6.03
2018-11-07T22:52:23.852Z,6.10
2018-11-07T22:54:51.325Z,6.10
2018-11-07T22:57:19.191Z,7.30
2018-11-07T22:59:47.466Z,6.80
2018-11-07T23:02:14.853Z,6.90
2018-11-07T23:04:42.292Z,5.53
2018-11-07T23:07:09.735Z,6.45
2018-11-07T23:09:37.134Z,5.78
2018-11-07T23:12:04.611Z,4.57
2018-11-07T23:14:32.054Z,5.12
2018-11-07T23:16:59.498Z,4.30
2018-11-07T23:19:27.539Z,3.55
2018-11-07T23:21:54.966Z,3.30
2018-11-07T23:24:22.368Z,2.47
2018-11-07T23:26:49.821Z,2.22
2018-11-07T23:29:17.430Z,1.70
2018-11-07T23:31:44.891Z,1.70
2018-11-07T23:34:12.323Z,1.37
2018-11-07T23:36:39.856Z,1.23
2018-11-07T23:39:07.311Z,1.67
2018-11-07T23:41:34.708Z,0.80
2018-11-07T23:44:02.181Z,1.00
2018-11-07T23:46:29.583Z,0.70
2018-11-07T23:48:57.013Z,1.05
2018-11-07T23:51:24.441Z,1.05
2018-11-07T23:53:51.912Z,1.00
2018-11-07T23:56:19.368Z,1.00
2018-11-07T23:58:46.793Z,0.80
